Time;durP1;ratioP1;P1;durP2;ratioP2;P2;SDS_P1;SDS_P2;PMS_P1;PMS_P2;Temp;Humidity;BMP_temperature;BMP_pressure;BME280_temperature;BME280_humidity;BME280_pressure;Samples;Min_cycle;Max_cycle;Signal;HPM_P1;HPM_P2
2022/04/22 00:02:15;;;;;;;16.37;7.60;;;;;;;6.78;62.85;99212.84;4464077;32;35138;-73
2022/04/22 00:05:02;;;;;;;16.52;8.20;;;;;;;6.53;64.53;99208.59;4465572;32;33822;-73
2022/04/22 00:07:49;;;;;;;12.60;7.80;;;;;;;6.68;63.91;99200.19;4463781;32;34330;-72
2022/04/22 00:10:35;;;;;;;16.58;7.53;;;;;;;7.24;62.56;99198.47;4464214;32;35139;-73
2022/04/22 00:13:22;;;;;;;13.68;7.43;;;;;;;7.76;60.69;99201.03;4463429;32;34869;-72
2022/04/22 00:16:09;;;;;;;13.60;7.03;;;;;;;7.87;59.61;99203.25;4465079;32;34663;-72
2022/04/22 00:18:55;;;;;;;17.50;7.28;;;;;;;7.91;59.33;99195.25;4465486;32;33836;-72
2022/04/22 00:21:42;;;;;;;12.40;7.68;;;;;;;7.93;59.41;99194.97;4464490;32;34558;-72
2022/04/22 00:24:28;;;;;;;15.30;7.72;;;;;;;8.00;59.50;99182.56;4465632;32;35593;-72
2022/04/22 00:27:14;;;;;;;12.98;7.75;;;;;;;8.11;59.38;99185.84;4462983;32;35504;-72
2022/04/22 00:30:00;;;;;;;13.90;8.07;;;;;;;7.95;59.38;99181.84;4464487;32;34130;-72
2022/04/22 00:32:47;;;;;;;12.57;7.53;;;;;;;7.95;59.65;99182.66;4464448;32;34184;-73
2022/04/22 00:35:33;;;;;;;13.75;7.95;;;;;;;7.95;59.61;99182.66;4464825;32;34973;-72
2022/04/22 00:38:20;;;;;;;14.15;8.45;;;;;;;8.02;59.45;99174.84;4458048;32;34586;-72
2022/04/22 00:41:06;;;;;;;16.60;8.68;;;;;;;7.91;59.80;99170.72;4463907;32;34229;-72
2022/04/22 00:43:53;;;;;;;14.35;8.05;;;;;;;8.25;59.40;99167.56;4463133;32;34330;-72
2022/04/22 00:46:39;;;;;;;13.90;8.35;;;;;;;8.23;58.17;99163.53;4464654;32;36025;-72
2022/04/22 00:49:25;;;;;;;14.52;8.48;;;;;;;8.36;58.32;99157.19;4464954;32;34834;-72
2022/04/22 00:52:12;;;;;;;13.38;8.38;;;;;;;8.34;58.80;99154.00;4465192;32;35087;-72
2022/04/22 00:54:59;;;;;;;14.23;8.68;;;;;;;8.24;59.09;99146.00;4465232;32;34828;-72
2022/04/22 00:57:45;;;;;;;17.35;8.88;;;;;;;8.21;59.61;99146.63;4464195;32;34953;-72
2022/04/22 01:00:32;;;;;;;14.48;7.57;;;;;;;8.15;59.67;99145.13;4463222;32;34771;-72
2022/04/22 01:03:18;;;;;;;14.63;8.50;;;;;;;8.17;60.39;99141.00;4463931;32;34388;-72
2022/04/22 01:12:16;;;;;;;15.90;8.60;;;;;;;7.90;62.39;99136.38;4462938;32;34615;-72
2022/04/22 01:15:03;;;;;;;15.48;8.65;;;;;;;8.08;61.70;99132.72;4463000;32;34720;-72
2022/04/22 01:17:49;;;;;;;13.55;8.27;;;;;;;8.10;61.56;99124.22;4451837;32;34572;-73
2022/04/22 01:20:35;;;;;;;13.30;8.32;;;;;;;8.67;60.01;99118.28;4463153;32;34927;-72
2022/04/22 01:23:22;;;;;;;13.15;7.20;;;;;;;8.87;58.77;99120.50;4464621;32;35490;-72
2022/04/22 01:26:09;;;;;;;15.80;8.18;;;;;;;8.91;58.36;99115.22;4464063;32;35317;-72
2022/04/22 01:28:55;;;;;;;16.62;8.48;;;;;;;7.84;61.98;99123.97;4463383;32;35104;-72
2022/04/22 01:31:45;;;;;;;16.10;8.48;;;;;;;8.38;59.82;99116.75;4463684;32;34615;-72
2022/04/22 01:34:33;;;;;;;15.73;7.87;;;;;;;7.81;61.55;99110.94;4462223;32;34609;-72
2022/04/22 01:37:19;;;;;;;14.02;8.52;;;;;;;8.28;60.84;99106.91;4463775;32;34234;-72
2022/04/22 01:40:06;;;;;;;15.05;8.18;;;;;;;7.74;61.93;99105.06;4463051;32;34575;-72
2022/04/22 01:42:53;;;;;;;12.60;8.23;;;;;;;7.82;62.08;99102.44;4464426;32;35612;-72
2022/04/22 01:45:40;;;;;;;14.00;8.07;;;;;;;7.69;62.79;99097.84;4463342;32;35569;-73
2022/04/22 01:48:26;;;;;;;12.90;8.18;;;;;;;7.61;63.21;99084.91;4463759;32;34236;-72
2022/04/22 01:51:12;;;;;;;12.37;7.95;;;;;;;8.05;61.66;99080.66;4461097;32;35186;-72
2022/04/22 01:53:59;;;;;;;16.00;8.30;;;;;;;8.32;61.04;99072.38;4464020;32;34697;-72
2022/04/22 01:56:45;;;;;;;13.27;8.02;;;;;;;8.51;60.37;99069.53;4465231;32;35038;-72
2022/04/22 01:59:32;;;;;;;14.50;8.25;;;;;;;8.71;59.46;99059.19;4463634;32;34036;-72
2022/04/22 02:02:19;;;;;;;15.45;8.77;;;;;;;8.50;58.85;99056.97;4462442;32;34666;-72
2022/04/22 02:05:06;;;;;;;13.45;8.32;;;;;;;8.44;58.86;99063.66;4464424;32;36030;-72
2022/04/22 02:07:52;;;;;;;16.65;8.30;;;;;;;8.53;58.56;99058.25;4451783;32;34534;-72
2022/04/22 02:10:40;;;;;;;13.70;8.15;;;;;;;8.59;58.53;99059.75;4452369;32;35094;-72
2022/04/22 02:13:26;;;;;;;15.90;8.10;;;;;;;8.54;58.79;99057.97;4464242;32;34646;-72
2022/04/22 02:16:13;;;;;;;14.13;8.00;;;;;;;8.54;59.25;99055.25;4464281;32;34949;-73
2022/04/22 02:18:59;;;;;;;13.80;8.35;;;;;;;7.68;62.44;99049.84;4461293;32;34623;-72
2022/04/22 02:21:46;;;;;;;14.55;8.68;;;;;;;7.99;62.06;99051.88;4462952;32;34201;-74
2022/04/22 02:24:32;;;;;;;15.65;9.48;;;;;;;7.89;62.42;99047.50;4461981;32;35418;-72
2022/04/22 02:30:23;;;;;;;14.30;8.95;;;;;;;8.63;58.20;99044.38;4463439;32;34819;-72
2022/04/22 02:33:11;;;;;;;16.17;9.77;;;;;;;8.38;58.32;99051.25;4454257;32;34484;-72
2022/04/22 02:35:57;;;;;;;15.07;8.75;;;;;;;8.60;59.08;99042.25;4466475;32;34796;-72
2022/04/22 02:38:44;;;;;;;14.55;8.48;;;;;;;8.28;61.05;99054.19;4464214;32;34884;-72
2022/04/22 02:47:47;;;;;;;15.88;8.75;;;;;;;8.98;56.64;99028.94;4455280;32;34653;-73
2022/04/22 02:50:34;;;;;;;14.35;8.73;;;;;;;8.82;58.27;99033.19;4464339;32;34961;-73
2022/04/22 02:53:22;;;;;;;14.43;8.98;;;;;;;9.20;57.20;99024.53;4464632;32;35703;-72
2022/04/22 02:56:09;;;;;;;14.60;8.40;;;;;;;9.41;55.30;99013.81;4465849;32;34251;-72
2022/04/22 02:58:55;;;;;;;16.10;9.23;;;;;;;9.51;54.18;99013.53;4465363;32;35160;-72
2022/04/22 03:01:43;;;;;;;14.82;8.88;;;;;;;9.49;54.35;99014.97;4453407;32;33774;-73
2022/04/22 03:04:29;;;;;;;14.60;8.73;;;;;;;9.57;54.08;99012.25;4464718;32;34646;-72
2022/04/22 03:07:16;;;;;;;14.10;9.07;;;;;;;9.72;54.06;99001.97;4464919;32;34210;-73
2022/04/22 03:10:03;;;;;;;14.55;9.13;;;;;;;9.60;53.10;99005.31;4465323;32;35191;-73
2022/04/22 03:12:50;;;;;;;15.95;9.10;;;;;;;9.73;53.52;99009.03;4465459;32;35086;-72
2022/04/22 03:15:36;;;;;;;15.63;8.88;;;;;;;9.83;52.77;99009.53;4462574;32;35558;-72
2022/04/22 03:18:23;;;;;;;16.00;8.45;;;;;;;9.87;51.88;98999.53;4449629;32;34689;-73
2022/04/22 03:21:09;;;;;;;15.07;9.20;;;;;;;9.73;52.49;98996.16;4448677;32;35403;-73
2022/04/22 03:23:58;;;;;;;11.85;8.02;;;;;;;9.89;51.97;98994.56;4450210;32;36029;-72
2022/04/22 03:26:45;;;;;;;13.05;8.25;;;;;;;9.93;51.49;98991.97;4449071;32;34282;-73
2022/04/22 03:29:31;;;;;;;12.90;8.07;;;;;;;9.83;51.34;98982.16;4442489;32;34283;-72
2022/04/22 03:32:20;;;;;;;14.05;7.85;;;;;;;9.81;51.99;98989.88;4440546;32;34009;-73
2022/04/22 03:35:07;;;;;;;14.15;8.23;;;;;;;9.97;52.35;98978.47;4446731;32;34731;-72
2022/04/22 03:37:53;;;;;;;14.43;7.70;;;;;;;9.88;52.25;98976.53;4446872;32;35514;-73
2022/04/22 03:40:40;;;;;;;15.00;8.30;;;;;;;9.83;51.54;98968.47;4445142;32;33703;-72
2022/04/22 03:43:26;;;;;;;13.25;7.62;;;;;;;9.97;51.65;98975.72;4446863;32;34272;-73
2022/04/22 03:46:13;;;;;;;15.80;8.57;;;;;;;10.08;51.60;98985.22;4448252;32;34536;-72
2022/04/22 03:49:00;;;;;;;12.95;8.10;;;;;;;10.03;52.09;98969.75;4434816;32;34746;-73
2022/04/22 03:51:47;;;;;;;12.40;7.60;;;;;;;10.18;51.85;98975.88;4448882;32;35185;-72
2022/04/22 03:54:33;;;;;;;13.45;7.75;;;;;;;10.08;51.69;98979.75;4448476;32;34555;-72
2022/04/22 04:00:25;;;;;;;14.45;7.28;;;;;;;10.30;51.27;98978.75;4449487;32;34571;-73
2022/04/22 04:03:17;;;;;;;13.38;7.45;;;;;;;10.33;50.44;98978.09;4448714;32;35325;-72
2022/04/22 04:06:02;;;;;;;12.70;7.35;;;;;;;10.09;50.71;98978.63;4445960;32;34171;-73
2022/04/22 04:15:57;;;;;;;13.50;7.35;;;;;;;10.31;50.84;98978.44;4449644;32;35535;-73
2022/04/22 04:18:05;;;;;;;16.17;7.65;;;;;;;10.60;50.27;98971.44;4448002;32;34310;-71
2022/04/22 04:23:57;;;;;;;13.15;7.82;;;;;;;10.65;49.72;98974.00;4445050;32;34754;-71
2022/04/22 04:26:44;;;;;;;15.93;8.98;;;;;;;10.66;50.20;98975.62;4444156;32;34130;-71
2022/04/22 04:29:30;;;;;;;15.02;7.30;;;;;;;10.68;50.02;98978.03;4449071;32;35527;-71
2022/04/22 04:32:17;;;;;;;13.00;8.23;;;;;;;10.65;50.05;98968.53;4446593;32;35614;-71
2022/04/22 04:35:04;;;;;;;13.52;7.95;;;;;;;10.91;49.82;98981.34;4446810;32;34610;-71
2022/04/22 04:37:50;;;;;;;12.45;7.90;;;;;;;10.72;50.41;98990.75;4446645;32;34175;-71
2022/04/22 04:40:37;;;;;;;13.02;7.95;;;;;;;10.54;50.60;98972.75;4447624;32;34529;-71
2022/04/22 04:43:23;;;;;;;15.18;8.25;;;;;;;10.17;51.02;98972.31;4446275;32;34559;-70
2022/04/22 04:46:09;;;;;;;15.48;8.93;;;;;;;10.33;50.83;98980.84;4441039;32;34744;-70
2022/04/22 04:48:59;;;;;;;14.50;7.25;;;;;;;10.16;50.73;98978.94;4447806;32;34031;-71
2022/04/22 04:51:45;;;;;;;12.68;7.25;;;;;;;10.44;50.54;98978.56;4450441;32;35176;-71
2022/04/22 04:54:31;;;;;;;13.88;7.82;;;;;;;10.34;50.08;98986.00;4435603;32;35025;-71
2022/04/22 04:57:19;;;;;;;16.70;8.60;;;;;;;10.45;49.98;98986.47;4448714;32;35523;-71
2022/04/22 05:00:07;;;;;;;15.05;8.48;;;;;;;10.58;50.14;98984.66;4448684;32;35190;-71
2022/04/22 05:02:55;;;;;;;18.60;8.55;;;;;;;10.66;50.44;98981.09;4449016;32;34484;-71
2022/04/22 05:05:47;;;;;;;16.52;8.40;;;;;;;10.41;51.82;98982.75;4447665;32;34531;-71
2022/04/22 05:08:33;;;;;;;15.88;8.40;;;;;;;10.60;51.09;98990.62;4448960;32;34264;-70
2022/04/22 05:11:19;;;;;;;17.10;8.57;;;;;;;10.49;52.19;99000.31;4447297;32;34257;-71
2022/04/22 05:14:07;;;;;;;15.68;9.52;;;;;;;10.62;50.79;98998.53;4448189;32;34675;-71
2022/04/22 05:16:54;;;;;;;14.38;8.98;;;;;;;9.89;53.34;98999.22;4448652;32;34786;-71
2022/04/22 05:19:40;;;;;;;15.48;8.68;;;;;;;10.32;52.15;98996.47;4450199;32;34702;-71
2022/04/22 05:22:27;;;;;;;18.00;8.52;;;;;;;10.42;51.00;99003.56;4449778;32;35095;-71
2022/04/22 05:25:14;;;;;;;19.05;9.30;;;;;;;10.31;50.45;99005.03;4449213;32;34592;-71
2022/04/22 05:28:05;;;;;;;17.27;9.32;;;;;;;10.49;50.33;99008.53;4446841;32;34533;-71
2022/04/22 05:33:56;;;;;;;18.48;8.95;;;;;;;10.07;51.41;98992.59;4443880;32;35203;-70
2022/04/22 05:36:43;;;;;;;16.10;8.20;;;;;;;9.90;51.96;98996.19;4446293;32;35105;-70
2022/04/22 05:39:29;;;;;;;16.23;8.52;;;;;;;10.06;51.01;99001.16;4448031;32;35809;-70
2022/04/22 05:42:15;;;;;;;13.65;8.18;;;;;;;10.11;50.54;98998.25;4449824;32;35361;-70
2022/04/22 05:45:02;;;;;;;15.68;8.30;;;;;;;10.04;50.89;98995.19;4450401;32;35303;-70
2022/04/22 05:47:48;;;;;;;17.00;8.50;;;;;;;10.09;50.50;99000.50;4447572;32;34173;-70
2022/04/22 05:50:35;;;;;;;13.77;8.07;;;;;;;9.91;51.58;98994.25;4449200;32;34911;-71
2022/04/22 05:53:21;;;;;;;13.50;8.25;;;;;;;10.19;50.49;98981.03;4450402;32;34718;-70
2022/04/22 05:56:08;;;;;;;17.65;9.40;;;;;;;10.01;51.04;98977.47;4450160;32;33754;-70
2022/04/22 05:58:55;;;;;;;16.20;8.30;;;;;;;10.04;50.64;98979.56;4448513;32;35606;-70
2022/04/22 06:01:41;;;;;;;15.80;8.95;;;;;;;9.93;50.53;98978.28;4447965;32;34947;-70
2022/04/22 06:04:28;;;;;;;17.05;8.75;;;;;;;10.06;50.28;98973.78;4448444;32;35551;-70
2022/04/22 06:07:15;;;;;;;14.35;8.75;;;;;;;10.24;50.63;98986.31;4448002;32;34130;-70
2022/04/22 06:13:08;;;;;;;12.13;7.97;;;;;;;10.17;50.13;98968.78;4449512;32;35564;-70
2022/04/22 06:15:54;;;;;;;17.10;9.27;;;;;;;10.23;50.02;98967.47;4449273;32;35422;-70
2022/04/22 06:18:40;;;;;;;15.10;8.82;;;;;;;10.43;49.20;98968.75;4464769;32;34246;-70
2022/04/22 06:21:29;;;;;;;13.65;8.52;;;;;;;10.46;48.81;98965.37;4453652;32;34607;-70
2022/04/22 06:24:15;;;;;;;16.20;8.07;;;;;;;10.07;50.18;98956.22;4461636;32;35589;-70
2022/04/22 06:27:01;;;;;;;17.65;9.73;;;;;;;9.98;49.96;98966.38;4460137;32;34642;-70
2022/04/22 06:29:48;;;;;;;14.40;8.90;;;;;;;9.94;50.66;98960.75;4463784;32;33698;-71
2022/04/22 06:32:36;;;;;;;13.70;8.30;;;;;;;9.95;50.63;98958.81;4460288;32;34348;-71
2022/04/22 06:35:22;;;;;;;17.58;9.25;;;;;;;10.05;50.14;98953.81;4461923;32;35659;-70
2022/04/22 06:38:14;;;;;;;15.18;8.18;;;;;;;10.32;49.78;98963.63;4461970;32;35782;-71
2022/04/22 06:47:11;;;;;;;16.40;8.65;;;;;;;10.02;50.96;98946.28;4459232;32;34979;-73
2022/04/22 06:49:58;;;;;;;16.25;8.30;;;;;;;10.40;49.91;98951.03;4462563;32;34150;-71
2022/04/22 06:52:47;;;;;;;14.05;8.38;;;;;;;10.36;50.12;98947.38;4460873;32;34220;-70
2022/04/22 06:55:34;;;;;;;13.23;7.85;;;;;;;10.46;50.37;98955.22;4463591;32;34330;-69
2022/04/22 06:58:21;;;;;;;16.12;9.70;;;;;;;10.29;50.18;98947.84;4462428;32;34998;-70
2022/04/22 07:01:08;;;;;;;15.38;8.77;;;;;;;10.34;49.48;98944.94;4462819;32;34640;-71
2022/04/22 07:04:14;;;;;;;14.48;8.52;;;;;;;10.72;48.61;98955.13;4461928;32;34141;-71
2022/04/22 07:07:03;;;;;;;16.25;8.40;;;;;;;10.64;48.90;98953.22;4460868;32;35656;-72
2022/04/22 07:09:49;;;;;;;15.32;8.65;;;;;;;10.44;49.65;98949.25;4463414;32;36000;-71
2022/04/22 07:12:36;;;;;;;12.98;8.43;;;;;;;10.41;49.74;98949.09;4460330;32;34608;-72
2022/04/22 07:15:23;;;;;;;19.20;8.93;;;;;;;10.59;49.66;98956.16;4462917;32;33734;-72
2022/04/22 07:18:10;;;;;;;16.00;8.73;;;;;;;10.46;50.35;98959.88;4463795;32;34662;-72
2022/04/22 07:20:56;;;;;;;17.48;8.55;;;;;;;10.88;49.06;98955.38;4453542;32;35014;-71
2022/04/22 07:23:44;;;;;;;15.75;8.00;;;;;;;10.93;48.51;98957.13;4463997;32;35509;-71
2022/04/22 07:26:30;;;;;;;17.50;8.85;;;;;;;11.07;49.35;98967.84;4464195;32;35101;-70
2022/04/22 07:29:17;;;;;;;16.60;8.65;;;;;;;10.66;50.64;98964.66;4459122;32;34574;-69
2022/04/22 07:32:04;;;;;;;17.00;9.40;;;;;;;10.84;52.22;98959.09;4464473;32;35972;-69
2022/04/22 07:34:50;;;;;;;15.40;10.05;;;;;;;10.71;53.22;98949.97;4464851;32;35728;-69
2022/04/22 07:37:37;;;;;;;16.02;10.25;;;;;;;10.96;53.43;98951.00;4461404;32;34569;-70
2022/04/22 07:40:27;;;;;;;20.05;10.13;;;;;;;10.46;55.20;98949.72;4462520;32;37045;-70
2022/04/22 07:46:48;;;;;;;18.95;10.88;;;;;;;10.49;57.66;98948.28;4463162;32;34232;-70
2022/04/22 07:49:34;;;;;;;19.33;10.48;;;;;;;10.72;56.40;98944.16;4463338;32;36022;-70
2022/04/22 07:52:21;;;;;;;17.23;11.05;;;;;;;10.32;57.40;98941.72;4464269;32;35223;-71
2022/04/22 07:55:08;;;;;;;17.58;11.05;;;;;;;10.42;58.70;98942.53;4459288;32;34605;-73
2022/04/22 07:58:00;;;;;;;19.17;10.98;;;;;;;10.56;58.20;98943.91;4462273;32;33247;-75
2022/04/22 08:00:46;;;;;;;19.10;10.88;;;;;;;10.62;58.91;98946.47;4460037;32;33848;-71
2022/04/22 08:03:32;;;;;;;16.45;10.80;;;;;;;10.44;61.06;98946.50;4448309;32;35364;-71
2022/04/22 08:06:19;;;;;;;18.12;11.30;;;;;;;10.81;59.73;98944.13;4445854;32;36784;-72
2022/04/22 08:09:05;;;;;;;18.77;11.15;;;;;;;10.51;60.25;98946.03;4449276;32;35262;-71
2022/04/22 08:11:52;;;;;;;19.33;11.57;;;;;;;10.65;60.10;98946.63;4464851;32;35064;-72
2022/04/22 08:14:39;;;;;;;19.95;11.90;;;;;;;10.79;60.33;98949.94;4463487;32;34377;-71
2022/04/22 08:17:26;;;;;;;17.08;11.23;;;;;;;10.41;62.00;98951.84;4461520;32;34916;-69
2022/04/22 08:20:13;;;;;;;19.60;12.13;;;;;;;10.58;61.93;98938.09;4462513;32;34561;-69
2022/04/22 08:22:59;;;;;;;19.35;12.30;;;;;;;10.46;64.88;98947.00;4462568;32;34259;-69
2022/04/22 08:25:46;;;;;;;21.92;12.82;;;;;;;10.86;65.34;98946.69;4463543;32;34465;-69
2022/04/22 08:28:33;;;;;;;20.58;11.75;;;;;;;10.87;65.08;98944.75;4463990;32;36467;-70
2022/04/22 08:31:19;;;;;;;22.75;13.02;;;;;;;10.51;65.90;98940.53;4464269;32;34863;-71
2022/04/22 08:34:05;;;;;;;22.83;13.13;;;;;;;10.05;68.49;98936.59;4462216;32;35129;-70
2022/04/22 08:36:51;;;;;;;21.15;12.63;;;;;;;10.03;69.78;98938.84;4464345;32;34826;-70
2022/04/22 08:39:38;;;;;;;22.25;13.80;;;;;;;10.00;71.22;98921.16;4462297;32;35491;-70
2022/04/22 08:42:26;;;;;;;25.15;14.35;;;;;;;10.26;70.83;98925.75;4460398;32;35300;-71
2022/04/22 08:45:25;;;;;;;22.42;13.77;;;;;;;10.03;71.20;98919.69;4460932;32;34166;-70
2022/04/22 08:51:19;;;;;;;23.38;14.85;;;;;;;10.29;72.43;98906.78;4463993;32;34991;-70
2022/04/22 08:54:08;;;;;;;30.52;15.18;;;;;;;10.18;74.62;98910.97;4463756;32;35592;-70
2022/04/22 08:56:55;;;;;;;27.52;15.32;;;;;;;10.23;75.61;98907.25;4460518;32;35052;-70
2022/04/22 08:59:42;;;;;;;24.90;16.10;;;;;;;10.19;76.58;98909.03;4462183;32;35376;-70
2022/04/22 09:02:28;;;;;;;25.27;16.48;;;;;;;9.99;82.28;98902.31;4460944;32;34605;-69
2022/04/22 09:05:15;;;;;;;24.75;16.20;;;;;;;10.11;82.00;98897.78;4461767;32;34394;-71
2022/04/22 09:08:02;;;;;;;28.25;17.23;;;;;;;10.12;84.17;98893.91;4462437;32;34197;-71
2022/04/22 09:10:53;;;;;;;26.42;15.88;;;;;;;10.27;85.48;98884.38;4462217;32;34646;-70
2022/04/22 09:13:39;;;;;;;22.77;16.10;;;;;;;10.40;86.08;98874.38;4462576;32;34698;-69
2022/04/22 09:16:27;;;;;;;26.42;15.65;;;;;;;10.44;86.90;98871.78;4465437;32;35522;-70
2022/04/22 09:19:13;;;;;;;24.02;14.93;;;;;;;10.26;88.96;98877.28;4462823;32;34011;-69
2022/04/22 09:22:00;;;;;;;25.12;16.15;;;;;;;10.20;90.10;98867.66;4463285;32;34699;-68
2022/04/22 09:24:57;;;;;;;28.10;16.70;;;;;;;9.99;90.33;98869.47;4462596;32;34847;-68
2022/04/22 09:27:44;;;;;;;29.05;16.42;;;;;;;10.02;92.16;98866.91;4461696;32;35307;-71
2022/04/22 09:30:30;;;;;;;30.45;17.23;;;;;;;10.06;93.00;98843.22;4464070;32;34433;-72
2022/04/22 09:33:18;;;;;;;27.73;18.10;;;;;;;9.90;93.44;98850.31;4451227;32;34230;-71
2022/04/22 09:42:43;;;;;;;23.48;16.58;;;;;;;10.11;90.70;98834.03;4446030;32;35098;-73
2022/04/22 09:45:37;;;;;;;21.80;14.95;;;;;;;10.12;91.32;98830.94;4463040;32;34708;-72
2022/04/22 09:48:23;;;;;;;26.77;17.60;;;;;;;10.10;91.08;98830.50;4462580;32;34510;-72
2022/04/22 09:51:22;;;;;;;23.90;16.15;;;;;;;10.16;93.66;98824.81;4463144;32;35282;-72
2022/04/22 09:54:14;;;;;;;23.27;15.65;;;;;;;10.27;92.79;98829.63;4449184;32;34685;-73
2022/04/22 09:57:01;;;;;;;24.00;16.98;;;;;;;10.43;91.81;98823.62;4451929;32;35146;-73
2022/04/22 09:59:47;;;;;;;24.70;17.15;;;;;;;10.24;94.07;98830.25;4460478;32;34506;-71
2022/04/22 10:02:33;;;;;;;24.10;15.52;;;;;;;10.62;92.77;98839.62;4460768;32;35485;-72
2022/04/22 10:05:22;;;;;;;23.67;15.30;;;;;;;10.56;89.05;98841.75;4461074;32;35153;-71
2022/04/22 10:08:10;;;;;;;30.70;16.87;;;;;;;10.29;89.76;98840.25;4463525;32;34822;-72
2022/04/22 10:10:59;;;;;;;24.02;17.02;;;;;;;10.49;90.80;98834.03;4464247;32;34934;-72
2022/04/22 10:13:46;;;;;;;27.05;16.17;;;;;;;10.60;90.38;98831.75;4459904;32;34301;-72
2022/04/22 10:16:32;;;;;;;25.00;15.63;;;;;;;10.27;91.86;98820.63;4463075;32;34267;-72
2022/04/22 10:19:19;;;;;;;25.15;15.95;;;;;;;10.43;90.47;98821.69;4462019;32;34250;-71
2022/04/22 10:22:07;;;;;;;21.80;15.40;;;;;;;10.48;87.59;98812.47;4463245;32;34987;-72
2022/04/22 10:24:54;;;;;;;22.37;15.90;;;;;;;10.64;87.99;98816.22;4463545;32;35438;-71
2022/04/22 10:27:42;;;;;;;23.42;15.38;;;;;;;10.93;86.63;98798.16;4462987;32;35427;-72
2022/04/22 10:30:29;;;;;;;24.50;16.10;;;;;;;10.95;84.79;98801.38;4461104;32;34692;-73
2022/04/22 10:33:15;;;;;;;24.02;15.57;;;;;;;11.31;85.12;98809.00;4461750;32;35123;-72
2022/04/22 10:36:04;;;;;;;21.92;16.02;;;;;;;11.05;82.11;98800.19;4462532;32;35099;-72
2022/04/22 10:38:51;;;;;;;22.62;15.27;;;;;;;11.07;82.55;98804.19;4460921;32;34655;-70
2022/04/22 10:41:46;;;;;;;24.08;16.23;;;;;;;10.87;83.45;98805.81;4462038;32;34430;-70
2022/04/22 10:47:41;;;;;;;23.60;15.18;;;;;;;11.11;82.23;98793.38;4462379;32;35171;-70
2022/04/22 10:50:34;;;;;;;23.40;16.20;;;;;;;11.09;81.09;98788.19;4464136;32;33718;-70
2022/04/22 10:53:26;;;;;;;22.62;16.65;;;;;;;10.80;83.75;98780.84;4466092;32;34587;-70
2022/04/22 10:56:33;;;;;;;22.02;15.15;;;;;;;11.15;82.87;98767.66;4462116;32;35887;-70
2022/04/22 10:59:24;;;;;;;21.70;14.60;;;;;;;11.20;80.17;98778.44;4460469;32;35453;-70
2022/04/22 11:02:30;;;;;;;21.90;15.50;;;;;;;11.19;80.24;98776.84;4457448;32;35145;-70
2022/04/22 11:05:23;;;;;;;22.87;15.13;;;;;;;10.60;83.97;98778.91;4463424;32;34110;-70
2022/04/22 11:08:24;;;;;;;21.62;15.10;;;;;;;11.23;81.43;98772.28;4463433;32;35172;-70
2022/04/22 11:11:13;;;;;;;21.05;14.60;;;;;;;11.03;82.81;98771.16;4462219;32;34647;-71
2022/04/22 11:14:17;;;;;;;20.62;12.80;;;;;;;10.73;84.12;98767.69;4465150;32;34250;-70
2022/04/22 11:17:32;;;;;;;18.98;13.25;;;;;;;11.30;79.63;98763.53;4461471;32;35104;-70
2022/04/22 11:20:19;;;;;;;19.70;12.82;;;;;;;11.22;79.14;98756.97;4464967;32;35985;-70
2022/04/22 11:23:06;;;;;;;17.02;12.70;;;;;;;11.25;78.04;98756.28;4465580;32;35674;-71
2022/04/22 11:25:53;;;;;;;17.73;12.55;;;;;;;11.24;77.57;98751.97;4462400;32;34085;-70
2022/04/22 11:28:40;;;;;;;20.40;12.75;;;;;;;11.09;78.25;98747.06;4458841;32;34353;-71
2022/04/22 11:31:28;;;;;;;20.37;13.15;;;;;;;11.40;77.29;98751.31;4465332;32;35674;-70
2022/04/22 11:34:18;;;;;;;16.15;12.35;;;;;;;11.11;77.32;98750.28;4465476;32;35887;-70
2022/04/22 11:37:16;;;;;;;15.57;11.50;;;;;;;11.56;74.03;98749.53;4465955;32;34240;-73
2022/04/22 11:40:06;;;;;;;19.23;12.20;;;;;;;11.95;71.69;98744.59;4466042;32;34189;-73
2022/04/22 11:42:54;;;;;;;16.27;11.18;;;;;;;12.02;68.89;98735.81;4466104;32;34889;-73
2022/04/22 11:45:49;;;;;;;16.75;11.77;;;;;;;12.04;68.67;98748.06;4463924;32;34263;-73
2022/04/22 11:48:44;;;;;;;19.25;12.65;;;;;;;12.08;66.14;98737.97;4465138;32;34383;-70
2022/04/22 11:51:36;;;;;;;17.87;11.12;;;;;;;12.47;66.17;98737.63;4463744;32;34608;-71
2022/04/22 11:54:26;;;;;;;15.98;11.20;;;;;;;12.58;65.85;98730.53;4463386;32;35137;-71
2022/04/22 11:57:12;;;;;;;16.08;10.82;;;;;;;12.48;63.41;98729.03;4450484;32;35108;-71
2022/04/22 12:06:13;;;;;;;13.57;10.15;;;;;;;12.75;62.48;98710.19;4465617;32;34257;-71
2022/04/22 12:09:01;;;;;;;16.90;10.43;;;;;;;12.99;60.53;98704.63;4464706;32;34709;-71
2022/04/22 12:11:50;;;;;;;14.40;9.20;;;;;;;13.03;59.17;98699.22;4464098;32;33821;-70
2022/04/22 12:14:37;;;;;;;14.23;8.68;;;;;;;13.33;58.35;98707.94;4465054;32;34334;-71
2022/04/22 12:17:24;;;;;;;16.52;9.52;;;;;;;13.40;55.87;98694.34;4463742;32;34880;-72
2022/04/22 12:20:11;;;;;;;12.48;8.50;;;;;;;13.75;55.90;98685.44;4463070;32;35320;-72
2022/04/22 12:22:58;;;;;;;12.10;7.50;;;;;;;13.75;54.64;98684.66;4451550;32;34971;-71
2022/04/22 12:25:55;;;;;;;17.12;8.75;;;;;;;13.43;52.57;98668.91;4464162;32;34629;-71
2022/04/22 12:29:00;;;;;;;;;;;;;;;13.40;52.37;98669.59;4466130;32;34971;-70
2022/04/22 12:31:49;;;;;;;12.95;8.25;;;;;;;13.28;51.85;98664.16;4466634;32;34899;-70
2022/04/22 12:34:36;;;;;;;16.12;9.23;;;;;;;13.33;52.02;98668.63;4463192;32;35572;-71
2022/04/22 12:37:24;;;;;;;11.77;8.07;;;;;;;13.05;52.89;98658.41;4465813;32;35370;-70
2022/04/22 12:40:11;;;;;;;11.23;7.57;;;;;;;13.66;50.02;98682.03;4464719;32;34937;-70
2022/04/22 12:43:27;;;;;;;12.15;8.15;;;;;;;13.28;50.34;98670.47;4465003;32;35070;-70
2022/04/22 12:52:55;;;;;;;12.85;7.28;;;;;;;13.43;48.24;98652.41;4462518;32;35609;-71
2022/04/22 12:55:41;;;;;;;14.32;7.28;;;;;;;13.41;47.63;98653.91;4464864;32;34680;-71
2022/04/22 12:58:28;;;;;;;10.70;6.97;;;;;;;13.45;48.02;98647.31;4465999;32;34100;-72
2022/04/22 13:01:19;;;;;;;9.98;6.70;;;;;;;13.43;48.14;98646.91;4463451;32;34709;-71
2022/04/22 13:04:07;;;;;;;11.50;7.57;;;;;;;13.66;47.70;98649.84;4461801;32;35651;-72
2022/04/22 13:06:54;;;;;;;11.00;7.07;;;;;;;13.49;46.92;98648.22;4464557;32;34560;-72
2022/04/22 13:09:40;;;;;;;10.43;7.22;;;;;;;13.90;48.14;98643.31;4464265;32;34154;-74
2022/04/22 13:12:26;;;;;;;11.12;7.20;;;;;;;13.65;47.55;98630.91;4462670;32;93954;-72
2022/04/22 13:15:18;;;;;;;10.77;6.45;;;;;;;13.76;46.82;98636.69;4463484;32;34540;-72
2022/04/22 13:18:04;;;;;;;10.15;6.22;;;;;;;13.68;46.71;98641.22;4452935;32;35733;-72
2022/04/22 13:20:52;;;;;;;10.77;6.43;;;;;;;13.79;47.35;98631.25;4456498;32;33073;-72
2022/04/22 13:23:39;;;;;;;9.60;6.12;;;;;;;13.78;47.15;98634.38;4463669;32;34644;-73
2022/04/22 13:26:25;;;;;;;10.52;6.28;;;;;;;13.55;47.31;98625.94;4461652;32;35932;-72
2022/04/22 13:29:12;;;;;;;13.52;6.22;;;;;;;13.48;46.80;98624.59;4465139;32;34620;-72
2022/04/22 13:31:58;;;;;;;10.13;6.68;;;;;;;13.31;46.74;98637.91;4465188;32;35089;-72
2022/04/22 13:34:45;;;;;;;12.63;6.25;;;;;;;13.16;47.20;98631.22;4464295;32;35227;-72
2022/04/22 13:37:32;;;;;;;9.68;6.40;;;;;;;13.22;46.65;98619.59;4461789;32;33814;-73
2022/04/22 13:40:19;;;;;;;9.73;5.95;;;;;;;13.14;46.99;98628.00;4462909;32;34647;-72
2022/04/22 13:43:05;;;;;;;10.20;6.20;;;;;;;13.15;47.37;98622.16;4452432;32;33772;-72
2022/04/22 13:52:22;;;;;;;10.30;6.28;;;;;;;12.87;47.03;98627.69;4465811;32;35562;-72
2022/04/22 13:55:08;;;;;;;9.82;6.12;;;;;;;13.03;46.41;98630.47;4465008;32;33884;-73
2022/04/22 13:57:56;;;;;;;11.07;6.43;;;;;;;12.95;47.32;98624.00;4463269;32;33277;-74
2022/04/22 14:00:44;;;;;;;10.75;6.95;;;;;;;12.97;46.97;98621.66;4452060;32;34901;-74
2022/04/22 14:03:31;;;;;;;11.90;7.05;;;;;;;12.99;47.53;98616.63;4462988;32;34708;-74
2022/04/22 14:06:17;;;;;;;11.50;6.85;;;;;;;13.14;47.50;98603.25;4465924;32;33855;-73
2022/04/22 14:09:04;;;;;;;11.15;6.65;;;;;;;13.24;47.38;98611.78;4462179;32;35201;-72
2022/04/22 14:11:50;;;;;;;10.70;6.90;;;;;;;13.23;46.65;98606.63;4463476;32;34860;-72
2022/04/22 14:14:37;;;;;;;12.98;6.60;;;;;;;13.36;47.11;98602.69;4465257;32;35516;-73
2022/04/22 14:17:24;;;;;;;11.90;7.22;;;;;;;13.40;47.35;98597.25;4462827;32;34519;-72